El Palomar, Argentina

4:11 AM ART on August 29, 2014 (GMT -0300)
Luzuriaga | Change Station
CLOSE
Current Station
Personal Weather Station
Location: Villa Luzuriaga, BUENOS AIRES
Elevation: 105 ft
Nearby Weather Stations

Elev 105 ft 34.66 °S, 58.59 °W | Updated 10 minutes ago

Clear
Clear
45.5 °F
Feels Like 46 °F
N
0.0
Wind Variable Wind from North
Gusts 0.0 mph

Today
High -- | Low -- °F
--% Chance of Precip.
Yesterday
High -- | Low -- °F
Precip. -- in
7:17 AM 6:33 PM
Waxing Crescent, 12% visible
Pressure 30.15 in
Visibility -9999.0 miles
Clouds
Windchill 46 °F
Dew Point 42 °F
Humidity 88%
Rainfall 0.00 in
Snow Depth Not available.
UV Not available.
Pollen Not available.
Air Quality Not available.
Flu Activity Not available.
METAR SADF 290700Z 00000KT CAVOK 08/07 Q1021

More Conditions Fewer Conditions

Pressure 30.15 in
Visibility -9999.0 miles
Clouds
Windchill 46 °F
Dew Point 42 °F
Humidity 88%
Rainfall 0.00 in
Snow Depth Not available.
UV Not available.
Pollen Not available.
Air Quality Not available.
Flu Activity Not available.
METAR SADF 290700Z 00000KT CAVOK 08/07 Q1021

More Conditions Fewer Conditions

10-Day Weather Forecast

Almanac

Astronomy

Aug. 29, 2014 Rise Set
Actual Time 7:17 AM ART 6:33 PM ART
Civil Twilight 6:51 AM ART 6:59 PM ART
Nautical Twilight 6:22 AM ART 7:28 PM ART
Astronomical Twilight 5:53 AM ART 7:57 PM ART
Moon 9:14 AM ART 10:25 PM ART
Length of Visible Light 12h 07m
Length of Day
11h 16m
Tomorrow will be 2m 1s longer.
Waxing Crescent, 12% of the Moon is Illuminated
Today
Waxing Crescent
Sep 2
First Quarter
Sep 8
Full
Sep 15
Last Quarter
Sep 24
New

Yesterday's Extremes

Country Highs Country Lows

Community

WunderPhotos

Upload Photos

1,748,197 photos uploaded!

Nearby

Snow Depth

Not available.

Earthquake Activity

City Distance Mag. Time & Date
No recent earthquake activity has been reported nearby.
Minimum magnitude displayed is 2.5.

Coastal Water Temperatures

Place Temperature
No Stations Reporting

Nearby Weather Stations